createdAt,value
2023-02-26T00:01:11.014Z,10.70
2023-02-26T00:03:37.504Z,10.70
2023-02-26T00:06:04.167Z,10.70
2023-02-26T00:08:30.770Z,10.70
2023-02-26T00:10:57.345Z,10.70
2023-02-26T00:13:23.856Z,10.70
2023-02-26T00:15:50.664Z,10.70
2023-02-26T00:18:17.152Z,10.70
2023-02-26T00:20:43.669Z,10.70
2023-02-26T00:23:10.172Z,10.60
2023-02-26T00:25:36.655Z,10.60
2023-02-26T00:28:03.142Z,10.60
2023-02-26T00:30:29.773Z,10.70
2023-02-26T00:32:56.316Z,10.60
2023-02-26T00:35:22.801Z,10.60
2023-02-26T00:37:49.295Z,10.60
2023-02-26T00:40:15.780Z,10.60
2023-02-26T00:42:42.270Z,10.60
2023-02-26T00:45:08.746Z,10.60
2023-02-26T00:47:35.325Z,10.60
2023-02-26T00:50:01.827Z,10.60
2023-02-26T00:52:28.342Z,10.70
2023-02-26T00:54:54.830Z,10.60
2023-02-26T00:57:21.293Z,10.60
2023-02-26T00:59:47.759Z,10.60
2023-02-26T01:02:14.220Z,10.70
2023-02-26T01:04:40.704Z,10.60
2023-02-26T01:07:07.257Z,10.50
2023-02-26T01:09:33.825Z,10.60
2023-02-26T01:12:00.288Z,10.60
2023-02-26T01:14:26.766Z,10.60
2023-02-26T01:16:53.248Z,10.60
2023-02-26T01:19:19.731Z,10.60
2023-02-26T01:21:46.191Z,10.60
2023-02-26T01:24:12.671Z,10.60
2023-02-26T01:26:39.134Z,10.60
2023-02-26T01:29:05.666Z,10.60
2023-02-26T01:31:32.278Z,10.50
2023-02-26T01:33:58.793Z,10.60
2023-02-26T01:36:25.484Z,10.50
2023-02-26T01:38:52.106Z,10.60
2023-02-26T01:41:18.607Z,10.60
2023-02-26T01:43:45.084Z,10.60
2023-02-26T01:46:11.586Z,10.60
2023-02-26T01:48:38.139Z,10.60
2023-02-26T01:51:04.667Z,10.60
2023-02-26T01:53:31.138Z,10.50
2023-02-26T01:55:57.629Z,10.50
2023-02-26T01:58:24.099Z,10.50
2023-02-26T02:00:50.584Z,10.60
2023-02-26T02:03:17.208Z,10.50
2023-02-26T02:05:43.726Z,10.50
2023-02-26T02:08:10.195Z,10.50
2023-02-26T02:10:36.663Z,10.50
2023-02-26T02:13:03.222Z,10.50
2023-02-26T02:15:29.709Z,10.50
2023-02-26T02:17:56.184Z,10.50
2023-02-26T02:20:22.723Z,10.60
2023-02-26T02:22:49.227Z,10.50
2023-02-26T02:25:15.707Z,10.60
2023-02-26T02:27:42.526Z,10.60
2023-02-26T02:30:09.005Z,10.50
2023-02-26T02:32:35.547Z,10.60
2023-02-26T02:35:02.061Z,10.60
2023-02-26T02:37:28.517Z,10.60
2023-02-26T02:39:54.979Z,10.60
2023-02-26T02:42:21.445Z,10.60
2023-02-26T02:44:47.911Z,10.60
2023-02-26T02:47:14.406Z,10.60
2023-02-26T02:49:40.898Z,10.50
2023-02-26T02:52:07.403Z,10.60
2023-02-26T02:54:33.892Z,10.50
2023-02-26T02:57:00.356Z,10.50
2023-02-26T02:59:26.820Z,10.50
2023-02-26T03:01:53.290Z,10.50
2023-02-26T03:04:19.768Z,10.60
2023-02-26T03:06:46.258Z,10.60
2023-02-26T03:09:12.766Z,10.50
2023-02-26T03:11:39.260Z,10.50
2023-02-26T03:14:05.792Z,10.60
2023-02-26T03:16:32.305Z,10.60
2023-02-26T03:18:58.806Z,10.60
2023-02-26T03:21:25.304Z,10.50
2023-02-26T03:23:51.774Z,10.50
2023-02-26T03:26:18.235Z,10.50
2023-02-26T03:28:44.692Z,10.50
2023-02-26T03:31:11.221Z,10.50
2023-02-26T03:33:37.727Z,10.50
2023-02-26T03:36:04.187Z,10.60
2023-02-26T03:38:30.655Z,10.50
2023-02-26T03:40:57.145Z,10.50
2023-02-26T03:43:23.624Z,10.50
2023-02-26T03:45:50.182Z,10.50
2023-02-26T03:48:16.687Z,10.50
2023-02-26T03:50:43.166Z,10.50
2023-02-26T03:53:09.657Z,10.50
2023-02-26T03:55:36.133Z,10.50
2023-02-26T03:58:02.591Z,10.50
2023-02-26T04:00:29.063Z,10.50
2023-02-26T04:02:55.546Z,10.50
2023-02-26T04:05:22.051Z,10.50
2023-02-26T04:07:48.521Z,10.50
2023-02-26T04:10:15.006Z,10.50
2023-02-26T04:12:41.462Z,10.50
2023-02-26T04:15:07.957Z,10.50
2023-02-26T04:17:34.438Z,10.50
2023-02-26T04:20:00.901Z,10.50
2023-02-26T04:22:27.366Z,10.50
2023-02-26T04:24:53.848Z,10.50
2023-02-26T04:27:20.338Z,10.50
2023-02-26T04:29:46.817Z,10.50
2023-02-26T04:32:13.389Z,10.50
2023-02-26T04:34:40.036Z,10.50
2023-02-26T04:37:06.540Z,10.50
2023-02-26T04:39:33.018Z,10.50
2023-02-26T04:41:59.507Z,10.50
2023-02-26T04:44:25.967Z,10.40
2023-02-26T04:46:52.445Z,10.40
2023-02-26T04:49:18.902Z,10.50
2023-02-26T04:51:45.383Z,10.40
2023-02-26T04:54:11.854Z,10.50
2023-02-26T04:56:38.353Z,10.50
2023-02-26T04:59:04.813Z,10.50
2023-02-26T05:01:31.304Z,10.50
2023-02-26T05:03:57.825Z,10.50
2023-02-26T05:06:24.559Z,10.50
2023-02-26T05:08:51.208Z,10.50
2023-02-26T05:11:17.674Z,10.40
2023-02-26T05:13:44.132Z,10.40
2023-02-26T05:16:10.636Z,10.40
2023-02-26T05:18:37.103Z,10.50
2023-02-26T05:21:03.567Z,10.50
2023-02-26T05:23:30.044Z,10.50
2023-02-26T05:25:56.526Z,10.50
2023-02-26T05:28:23.024Z,10.50
2023-02-26T05:30:49.536Z,10.50
2023-02-26T05:33:16.035Z,10.50
2023-02-26T05:35:42.528Z,10.40
2023-02-26T05:38:09.003Z,10.50
2023-02-26T05:40:35.487Z,10.50
2023-02-26T05:43:01.957Z,10.50
2023-02-26T05:45:28.430Z,10.40
2023-02-26T05:47:54.898Z,10.50
2023-02-26T05:50:21.346Z,10.50
2023-02-26T05:52:47.823Z,10.50
2023-02-26T05:55:14.296Z,10.50
2023-02-26T05:57:40.772Z,10.50
2023-02-26T06:00:07.241Z,10.50
2023-02-26T06:02:33.717Z,10.40
2023-02-26T06:05:00.185Z,10.40
2023-02-26T06:07:26.670Z,10.40
2023-02-26T06:09:53.158Z,10.50
2023-02-26T06:12:19.664Z,10.50
2023-02-26T06:14:46.147Z,10.40
2023-02-26T06:17:12.615Z,10.40
2023-02-26T06:19:39.082Z,10.40
2023-02-26T06:22:05.590Z,10.50
2023-02-26T06:24:32.065Z,10.50
2023-02-26T06:26:58.544Z,10.40
2023-02-26T06:29:25.025Z,10.50
2023-02-26T06:31:51.594Z,10.50
2023-02-26T06:34:18.136Z,10.50
2023-02-26T06:36:44.694Z,10.50
2023-02-26T06:39:11.175Z,10.50
2023-02-26T06:41:37.631Z,10.40
2023-02-26T06:44:04.098Z,10.50
2023-02-26T06:46:30.557Z,10.50
2023-02-26T06:48:57.034Z,10.70
2023-02-26T06:51:23.511Z,10.80
2023-02-26T06:53:49.991Z,10.90
2023-02-26T06:56:16.471Z,11.00
2023-02-26T06:58:42.951Z,11.20
2023-02-26T07:01:09.450Z,11.30
2023-02-26T07:03:35.939Z,11.40
2023-02-26T07:06:23.642Z,11.40
2023-02-26T07:08:48.890Z,11.40
2023-02-26T07:11:15.395Z,11.50
2023-02-26T07:13:41.880Z,11.60
2023-02-26T07:16:08.368Z,11.70
2023-02-26T07:18:34.839Z,11.50
2023-02-26T07:21:01.312Z,11.50
2023-02-26T07:23:27.805Z,11.70
2023-02-26T07:25:54.294Z,11.90
2023-02-26T07:28:20.813Z,12.00
2023-02-26T07:30:47.364Z,12.10
2023-02-26T07:33:13.955Z,12.10
2023-02-26T07:35:40.439Z,11.90
2023-02-26T07:38:06.894Z,12.10
2023-02-26T07:40:33.353Z,12.20
2023-02-26T07:42:59.864Z,12.20
2023-02-26T07:45:26.353Z,12.20
2023-02-26T07:47:52.804Z,12.30
2023-02-26T07:50:19.290Z,12.30
2023-02-26T07:52:45.757Z,12.40
2023-02-26T07:55:12.238Z,12.30
2023-02-26T07:57:38.722Z,12.30
2023-02-26T08:00:05.227Z,12.30
2023-02-26T08:02:31.697Z,12.40
2023-02-26T08:04:58.189Z,12.40
2023-02-26T08:07:24.752Z,12.60
2023-02-26T08:09:51.227Z,12.50
2023-02-26T08:12:17.705Z,12.70
2023-02-26T08:14:44.190Z,12.70
2023-02-26T08:17:10.639Z,12.90
2023-02-26T08:19:37.121Z,12.80
2023-02-26T08:22:03.590Z,12.90
2023-02-26T08:24:30.051Z,12.90
2023-02-26T08:26:56.507Z,13.00
2023-02-26T08:29:22.987Z,13.00
2023-02-26T08:31:49.558Z,13.10
2023-02-26T08:34:16.087Z,13.20
2023-02-26T08:36:42.568Z,13.00
2023-02-26T08:39:09.084Z,13.10
2023-02-26T08:41:35.547Z,13.10
2023-02-26T08:44:01.990Z,13.20
2023-02-26T08:46:28.865Z,13.30
2023-02-26T08:48:55.572Z,13.20
2023-02-26T08:51:22.043Z,13.30
2023-02-26T08:53:48.517Z,13.40
2023-02-26T08:56:14.997Z,13.40
2023-02-26T08:58:41.464Z,13.40
2023-02-26T09:01:07.976Z,13.40
2023-02-26T09:03:34.453Z,13.40
2023-02-26T09:06:00.922Z,13.40
2023-02-26T09:08:27.374Z,13.50
2023-02-26T09:10:53.848Z,13.50
2023-02-26T09:13:20.314Z,13.50
2023-02-26T09:15:50.666Z,13.50
2023-02-26T09:18:17.126Z,13.50
2023-02-26T09:20:43.588Z,13.50
2023-02-26T09:23:10.052Z,13.40
2023-02-26T09:25:36.534Z,13.30
2023-02-26T09:28:03.068Z,13.30
2023-02-26T09:30:29.552Z,13.20
2023-02-26T09:32:56.032Z,13.10
2023-02-26T09:35:22.530Z,13.00
2023-02-26T09:37:49.005Z,13.10
2023-02-26T09:40:15.502Z,13.00
2023-02-26T09:42:41.966Z,13.10
2023-02-26T09:45:08.452Z,13.00
2023-02-26T09:47:34.934Z,13.00
2023-02-26T09:50:01.392Z,12.90
2023-02-26T09:52:27.876Z,12.90
2023-02-26T09:54:54.345Z,12.80
2023-02-26T09:57:20.823Z,12.80
2023-02-26T09:59:47.302Z,12.70
2023-02-26T10:02:13.841Z,12.60
2023-02-26T10:04:40.355Z,12.60
2023-02-26T10:07:06.854Z,12.60
2023-02-26T10:09:33.338Z,12.50
2023-02-26T10:14:50.779Z,12.60
2023-02-26T10:17:17.276Z,12.60
2023-02-26T10:19:43.742Z,12.60
2023-02-26T10:22:10.252Z,12.50
2023-02-26T10:24:36.738Z,12.50
2023-02-26T10:27:03.225Z,12.50
2023-02-26T10:29:29.682Z,12.40
2023-02-26T10:31:56.293Z,12.50
2023-02-26T10:34:22.789Z,12.40
2023-02-26T10:36:50.360Z,12.50
2023-02-26T10:39:16.836Z,12.50
2023-02-26T10:41:43.300Z,12.40
2023-02-26T10:44:09.764Z,12.40
2023-02-26T10:46:36.237Z,12.30
2023-02-26T10:49:02.805Z,12.30
2023-02-26T10:51:29.284Z,12.20
2023-02-26T10:53:55.776Z,12.20
2023-02-26T10:56:22.275Z,12.20
2023-02-26T10:58:48.749Z,12.20
2023-02-26T11:01:15.234Z,12.20
2023-02-26T11:03:41.763Z,12.20
2023-02-26T11:06:08.249Z,12.20
2023-02-26T11:08:34.716Z,12.10
2023-02-26T11:11:01.218Z,12.10
2023-02-26T11:13:27.691Z,12.10
2023-02-26T11:15:54.223Z,12.10
2023-02-26T11:18:20.708Z,12.00
2023-02-26T11:20:47.226Z,12.00
2023-02-26T11:23:13.693Z,11.90
2023-02-26T11:25:40.198Z,11.90
2023-02-26T11:28:06.694Z,12.00
2023-02-26T11:30:33.267Z,11.90
2023-02-26T11:32:59.747Z,11.90
2023-02-26T11:35:26.252Z,11.90
2023-02-26T11:37:52.770Z,11.90
2023-02-26T11:40:19.274Z,11.90
2023-02-26T11:42:45.754Z,11.80
2023-02-26T11:45:12.215Z,11.80
2023-02-26T11:47:38.696Z,11.80
2023-02-26T11:50:05.225Z,11.90
2023-02-26T11:52:31.723Z,11.80
2023-02-26T11:54:58.183Z,11.80
2023-02-26T11:57:24.656Z,11.80
2023-02-26T11:59:51.140Z,11.80
2023-02-26T12:02:17.672Z,11.80
2023-02-26T12:04:44.145Z,11.70
2023-02-26T12:07:10.617Z,11.70
2023-02-26T12:09:37.098Z,11.70
2023-02-26T12:12:03.569Z,11.80
2023-02-26T12:14:30.049Z,11.70
2023-02-26T12:16:56.535Z,11.70
2023-02-26T12:19:23.010Z,11.70
2023-02-26T12:21:49.500Z,11.70
2023-02-26T12:24:15.975Z,11.70
2023-02-26T12:26:42.471Z,11.70
2023-02-26T12:29:08.939Z,11.70
2023-02-26T12:31:35.436Z,11.70
2023-02-26T12:34:01.896Z,11.70
2023-02-26T12:36:36.316Z,11.60
2023-02-26T12:39:13.068Z,11.70
2023-02-26T12:41:39.534Z,11.60
2023-02-26T12:44:05.986Z,11.60
2023-02-26T12:46:32.514Z,11.60
2023-02-26T12:48:59.006Z,11.60
2023-02-26T12:51:25.809Z,11.60
2023-02-26T12:53:52.540Z,11.60
2023-02-26T12:56:19.066Z,11.80
2023-02-26T12:58:45.537Z,11.70
2023-02-26T13:01:12.081Z,11.80
2023-02-26T13:03:38.620Z,11.90
2023-02-26T13:06:05.109Z,12.00
2023-02-26T13:08:31.576Z,12.20
2023-02-26T13:10:58.075Z,12.20
2023-02-26T13:13:24.566Z,12.30
2023-02-26T13:15:51.083Z,12.20
2023-02-26T13:18:17.558Z,12.20
2023-02-26T13:20:44.060Z,12.10
2023-02-26T13:23:10.567Z,12.10
2023-02-26T13:25:37.062Z,12.00
2023-02-26T13:28:03.550Z,12.00
2023-02-26T13:30:30.029Z,12.00
2023-02-26T13:32:56.640Z,11.90
2023-02-26T13:35:23.151Z,11.90
2023-02-26T13:37:49.614Z,11.90
2023-02-26T13:40:16.073Z,11.90
2023-02-26T13:42:42.572Z,11.80
2023-02-26T13:45:09.089Z,11.80
2023-02-26T13:47:35.581Z,11.80
2023-02-26T13:50:02.073Z,11.80
2023-02-26T13:52:28.559Z,11.80
2023-02-26T13:54:55.024Z,11.80
2023-02-26T13:57:21.519Z,11.70
2023-02-26T13:59:47.993Z,11.70
2023-02-26T14:02:14.508Z,11.70
2023-02-26T14:04:41.002Z,11.70
2023-02-26T14:07:07.668Z,11.70
2023-02-26T14:09:34.120Z,11.70
2023-02-26T14:12:01.331Z,11.70
2023-02-26T14:14:27.895Z,11.70
2023-02-26T14:16:54.509Z,11.70
2023-02-26T14:19:21.046Z,11.70
2023-02-26T14:21:50.932Z,11.70
2023-02-26T14:24:17.431Z,11.60
2023-02-26T14:26:43.893Z,11.60
2023-02-26T14:29:10.367Z,11.60
2023-02-26T14:31:36.944Z,11.60
2023-02-26T14:34:03.503Z,11.60
2023-02-26T14:36:29.974Z,11.60
2023-02-26T14:38:56.456Z,11.60
2023-02-26T14:41:22.925Z,11.60
2023-02-26T14:43:49.437Z,11.60
2023-02-26T14:46:15.941Z,11.60
2023-02-26T14:48:42.444Z,11.60
2023-02-26T14:51:08.927Z,11.60
2023-02-26T14:53:35.397Z,11.60
2023-02-26T14:56:01.868Z,11.60
2023-02-26T14:58:28.347Z,11.60
2023-02-26T15:00:54.883Z,11.60
2023-02-26T15:03:21.395Z,11.60
2023-02-26T15:05:47.851Z,11.60
2023-02-26T15:08:14.347Z,11.70
2023-02-26T15:10:40.809Z,11.70
2023-02-26T15:13:07.328Z,11.60
2023-02-26T15:15:33.830Z,11.60
2023-02-26T15:18:00.330Z,11.60
2023-02-26T15:20:26.797Z,11.70
2023-02-26T15:22:53.311Z,11.80
2023-02-26T15:25:20.041Z,11.80
2023-02-26T15:27:46.711Z,11.80
2023-02-26T15:30:13.222Z,11.80
2023-02-26T15:32:39.950Z,11.80
2023-02-26T15:35:06.450Z,11.80
2023-02-26T15:37:32.920Z,11.80
2023-02-26T15:39:59.476Z,11.80
2023-02-26T15:42:25.983Z,11.80
2023-02-26T15:44:57.202Z,11.90
2023-02-26T15:47:27.182Z,11.90
2023-02-26T15:49:53.929Z,11.80
2023-02-26T15:52:20.581Z,11.90
2023-02-26T15:54:47.119Z,11.80
2023-02-26T15:57:14.956Z,11.90
2023-02-26T15:59:41.431Z,11.90
2023-02-26T16:02:08.034Z,11.90
2023-02-26T16:04:34.584Z,11.90
2023-02-26T16:07:01.062Z,11.90
2023-02-26T16:09:27.564Z,11.90
2023-02-26T16:11:54.054Z,11.90
2023-02-26T16:14:20.564Z,11.80
2023-02-26T16:16:47.044Z,11.90
2023-02-26T16:19:13.698Z,11.90
2023-02-26T16:21:40.176Z,11.90
2023-02-26T16:24:06.784Z,11.90
2023-02-26T16:26:33.262Z,11.80
2023-02-26T16:28:59.746Z,11.80
2023-02-26T16:31:26.269Z,11.80
2023-02-26T16:33:52.827Z,11.90
2023-02-26T16:36:19.301Z,12.00
2023-02-26T16:38:45.834Z,11.70
2023-02-26T16:41:12.316Z,11.70
2023-02-26T16:43:38.782Z,11.70
2023-02-26T16:46:05.260Z,11.60
2023-02-26T16:48:31.950Z,11.60
2023-02-26T16:50:58.493Z,11.60
2023-02-26T16:53:24.998Z,11.60
2023-02-26T16:55:51.485Z,11.50
2023-02-26T16:58:17.962Z,11.50
2023-02-26T17:00:44.471Z,11.40
2023-02-26T17:03:11.104Z,11.40
2023-02-26T17:05:37.585Z,11.50
2023-02-26T17:08:04.060Z,11.40
2023-02-26T17:10:30.785Z,11.40
2023-02-26T17:12:57.265Z,11.40
2023-02-26T17:15:23.789Z,11.40
2023-02-26T17:17:50.256Z,11.40
2023-02-26T17:20:16.737Z,11.40
2023-02-26T17:22:43.222Z,11.40
2023-02-26T17:25:10.018Z,11.30
2023-02-26T17:27:36.487Z,11.40
2023-02-26T17:30:02.977Z,11.30
2023-02-26T17:32:29.557Z,11.30
2023-02-26T17:34:56.086Z,11.30
2023-02-26T17:37:22.568Z,11.30
2023-02-26T17:39:49.089Z,11.30
2023-02-26T17:42:15.574Z,11.40
2023-02-26T17:44:42.119Z,11.30
2023-02-26T17:47:08.607Z,11.40
2023-02-26T17:49:35.074Z,11.40
2023-02-26T17:52:01.554Z,11.30
2023-02-26T17:54:28.028Z,11.30
2023-02-26T17:56:57.087Z,11.30
2023-02-26T17:59:23.571Z,11.30
2023-02-26T18:01:50.128Z,11.20
2023-02-26T18:04:16.730Z,11.30
2023-02-26T18:06:43.297Z,11.20
2023-02-26T18:09:09.763Z,11.20
2023-02-26T18:11:36.282Z,11.20
2023-02-26T18:14:02.760Z,11.20
2023-02-26T18:16:29.262Z,11.20
2023-02-26T18:18:55.730Z,11.20
2023-02-26T18:21:22.229Z,11.20
2023-02-26T18:23:48.715Z,11.20
2023-02-26T18:26:15.189Z,11.30
2023-02-26T18:28:41.663Z,11.30
2023-02-26T18:31:08.320Z,11.20
2023-02-26T18:33:34.984Z,11.20
2023-02-26T18:36:01.458Z,11.20
2023-02-26T18:38:27.940Z,11.30
2023-02-26T18:40:54.419Z,11.30
2023-02-26T18:43:20.885Z,11.20
2023-02-26T18:45:47.368Z,11.20
2023-02-26T18:48:13.873Z,11.20
2023-02-26T18:50:40.361Z,11.30
2023-02-26T18:53:06.864Z,11.20
2023-02-26T18:55:33.328Z,11.20
2023-02-26T18:57:59.816Z,11.20
2023-02-26T19:00:26.336Z,11.20
2023-02-26T19:02:53.058Z,11.30
2023-02-26T19:05:19.857Z,11.20
2023-02-26T19:07:46.343Z,11.20
2023-02-26T19:10:12.829Z,11.20
2023-02-26T19:12:39.337Z,11.20
2023-02-26T19:15:05.807Z,11.30
2023-02-26T19:17:32.301Z,11.20
2023-02-26T19:19:58.777Z,11.30
2023-02-26T19:22:25.243Z,11.20
2023-02-26T19:24:51.736Z,11.20
2023-02-26T19:27:18.239Z,11.20
2023-02-26T19:29:44.932Z,11.30
2023-02-26T19:32:11.554Z,11.30
2023-02-26T19:34:38.138Z,11.40
2023-02-26T19:37:04.643Z,11.40
2023-02-26T19:39:31.115Z,11.40
2023-02-26T19:41:57.587Z,11.30
2023-02-26T19:44:24.049Z,11.30
2023-02-26T19:46:50.545Z,11.30
2023-02-26T19:49:16.997Z,11.20
2023-02-26T19:51:43.486Z,11.30
2023-02-26T19:54:09.957Z,11.30
2023-02-26T19:56:36.425Z,11.20
2023-02-26T19:59:02.910Z,11.30
2023-02-26T20:01:29.709Z,11.30
2023-02-26T20:03:56.435Z,11.30
2023-02-26T20:06:22.942Z,11.20
2023-02-26T20:08:49.416Z,11.20
2023-02-26T20:11:15.931Z,11.30
2023-02-26T20:13:42.381Z,11.20
2023-02-26T20:16:08.943Z,11.30
2023-02-26T20:18:35.467Z,11.30
2023-02-26T20:21:01.958Z,11.30
2023-02-26T20:23:28.455Z,11.30
2023-02-26T20:25:54.913Z,11.30
2023-02-26T20:28:21.373Z,11.20
2023-02-26T20:30:47.923Z,11.30
2023-02-26T20:33:14.551Z,11.30
2023-02-26T20:35:41.078Z,11.30
2023-02-26T20:38:07.567Z,11.30
2023-02-26T20:40:34.034Z,11.20
2023-02-26T20:43:00.524Z,11.20
2023-02-26T20:45:27.079Z,11.20
2023-02-26T20:47:53.571Z,11.30
2023-02-26T20:50:20.055Z,11.30
2023-02-26T20:52:46.534Z,11.30
2023-02-26T20:55:13.015Z,11.30
2023-02-26T20:57:39.499Z,11.20
2023-02-26T21:00:05.968Z,11.20
2023-02-26T21:02:32.546Z,11.20
2023-02-26T21:04:59.090Z,11.20
2023-02-26T21:07:25.598Z,11.20
2023-02-26T21:09:52.092Z,11.20
2023-02-26T21:12:18.653Z,11.20
2023-02-26T21:14:45.109Z,11.20
2023-02-26T21:17:11.643Z,11.20
2023-02-26T21:19:38.205Z,11.20
2023-02-26T21:22:04.671Z,11.30
2023-02-26T21:24:31.160Z,11.20
2023-02-26T21:26:57.618Z,11.20
2023-02-26T21:29:24.110Z,11.20
2023-02-26T21:31:50.797Z,11.20
2023-02-26T21:34:33.211Z,11.20
2023-02-26T21:37:00.406Z,11.20
2023-02-26T21:39:26.876Z,11.20
2023-02-26T21:41:53.354Z,11.20
2023-02-26T21:44:19.845Z,11.20
2023-02-26T21:46:46.355Z,11.20
2023-02-26T21:49:12.827Z,11.20
2023-02-26T21:51:39.303Z,11.20
2023-02-26T21:54:05.797Z,11.20
2023-02-26T21:56:32.277Z,11.20
2023-02-26T21:58:58.787Z,11.10
2023-02-26T22:01:25.686Z,11.20
2023-02-26T22:03:52.445Z,11.10
2023-02-26T22:06:18.993Z,11.10
2023-02-26T22:08:45.508Z,11.20
2023-02-26T22:11:11.977Z,11.20
2023-02-26T22:13:38.456Z,11.10
2023-02-26T22:16:04.920Z,11.20
2023-02-26T22:18:31.421Z,11.10
2023-02-26T22:20:57.888Z,11.10
2023-02-26T22:23:24.366Z,11.10
2023-02-26T22:25:50.834Z,11.10
2023-02-26T22:28:17.311Z,11.10
2023-02-26T22:30:43.888Z,11.10
2023-02-26T22:33:10.377Z,11.10
2023-02-26T22:35:36.857Z,11.00
2023-02-26T22:38:03.326Z,11.00
2023-02-26T22:40:29.812Z,11.10
2023-02-26T22:42:56.350Z,11.10
2023-02-26T22:45:22.904Z,11.10
2023-02-26T22:47:49.482Z,11.00
2023-02-26T22:50:15.965Z,11.00
2023-02-26T22:52:42.425Z,11.00
2023-02-26T22:55:08.919Z,11.00
2023-02-26T22:57:35.404Z,11.10
2023-02-26T23:00:01.890Z,11.00
2023-02-26T23:02:28.386Z,11.00
2023-02-26T23:04:54.853Z,11.00
2023-02-26T23:07:21.324Z,11.00
2023-02-26T23:09:47.795Z,11.00
2023-02-26T23:12:14.272Z,11.00
2023-02-26T23:14:40.796Z,11.00
2023-02-26T23:17:08.288Z,11.00
2023-02-26T23:19:35.232Z,11.00
2023-02-26T23:22:01.702Z,11.00
2023-02-26T23:24:28.193Z,11.00
2023-02-26T23:26:54.687Z,11.00
2023-02-26T23:29:21.206Z,11.00
2023-02-26T23:31:47.770Z,11.00
2023-02-26T23:34:14.386Z,11.00
2023-02-26T23:36:40.864Z,11.00
2023-02-26T23:39:07.334Z,11.00
2023-02-26T23:41:33.810Z,11.00
2023-02-26T23:44:00.262Z,11.00
2023-02-26T23:46:26.771Z,11.00
2023-02-26T23:48:53.268Z,11.00
2023-02-26T23:51:19.729Z,11.00
2023-02-26T23:53:46.185Z,11.00
2023-02-26T23:56:12.660Z,10.90
2023-02-26T23:58:39.127Z,11.00
